createdAt,value
2023-05-10T00:00:18.537Z,10.04
2023-05-10T00:01:41.651Z,9.90
2023-05-10T00:03:05.941Z,9.97
2023-05-10T00:04:29.170Z,9.99
2023-05-10T00:05:51.088Z,9.89
2023-05-10T00:07:13.844Z,9.69
2023-05-10T00:08:35.719Z,9.57
2023-05-10T00:09:58.661Z,9.43
2023-05-10T00:11:22.871Z,9.32
2023-05-10T00:12:45.997Z,9.35
2023-05-10T00:14:08.801Z,9.77
2023-05-10T00:15:31.977Z,9.69
2023-05-10T00:16:54.976Z,9.46
2023-05-10T00:18:17.948Z,9.35
2023-05-10T00:19:39.843Z,9.41
2023-05-10T00:21:02.680Z,9.34
2023-05-10T00:22:24.609Z,9.27
2023-05-10T00:23:47.468Z,9.29
2023-05-10T00:25:10.347Z,9.32
2023-05-10T00:26:33.149Z,9.32
2023-05-10T00:27:56.178Z,9.29
2023-05-10T00:29:19.010Z,9.29
2023-05-10T00:30:43.165Z,9.34
2023-05-10T00:32:06.889Z,9.32
2023-05-10T00:33:29.790Z,9.19
2023-05-10T00:34:52.611Z,9.30
2023-05-10T00:36:15.417Z,9.31
2023-05-10T00:37:37.304Z,9.15
2023-05-10T00:39:00.213Z,9.18
2023-05-10T00:40:22.098Z,9.09
2023-05-10T00:41:44.908Z,9.09
2023-05-10T00:43:07.772Z,9.02
2023-05-10T00:44:29.613Z,9.06
2023-05-10T00:45:54.728Z,9.36
2023-05-10T00:47:17.996Z,9.32
2023-05-10T00:48:40.166Z,9.50
2023-05-10T00:50:03.622Z,9.63
2023-05-10T00:51:25.935Z,9.64
2023-05-10T00:52:48.926Z,9.67
2023-05-10T00:54:12.703Z,9.88
2023-05-10T00:55:35.628Z,9.96
2023-05-10T00:56:58.055Z,9.66
2023-05-10T00:58:20.926Z,9.64
2023-05-10T00:59:42.787Z,9.49
2023-05-10T01:01:07.963Z,9.52
2023-05-10T01:02:30.027Z,9.38
2023-05-10T01:03:53.360Z,9.26
2023-05-10T01:05:15.328Z,9.42
2023-05-10T01:06:38.258Z,9.62
2023-05-10T01:08:00.153Z,9.51
2023-05-10T01:09:23.500Z,9.40
2023-05-10T01:10:47.339Z,9.33
2023-05-10T01:12:09.484Z,9.45
2023-05-10T01:13:36.040Z,9.93
2023-05-10T01:14:59.276Z,10.26
2023-05-10T01:16:24.103Z,9.95
2023-05-10T01:17:49.300Z,10.20
2023-05-10T01:19:16.428Z,10.59
2023-05-10T01:20:45.346Z,10.73
2023-05-10T01:22:23.630Z,10.99
2023-05-10T01:24:10.048Z,11.00
2023-05-10T01:26:08.344Z,11.41
2023-05-10T01:28:02.144Z,11.63
2023-05-10T01:30:14.641Z,11.50
2023-05-10T01:32:01.087Z,11.60
2023-05-10T01:33:32.176Z,11.38
2023-05-10T01:34:57.075Z,11.31
2023-05-10T01:36:27.156Z,11.19
2023-05-10T01:37:59.899Z,10.84
2023-05-10T01:39:30.087Z,10.80
2023-05-10T01:41:03.433Z,10.70
2023-05-10T01:42:33.000Z,11.10
2023-05-10T01:43:59.345Z,11.42
2023-05-10T01:45:30.995Z,11.53
2023-05-10T01:46:57.144Z,11.70
2023-05-10T01:48:20.921Z,11.84
2023-05-10T01:49:49.524Z,11.71
2023-05-10T01:51:12.081Z,11.89
2023-05-10T01:52:38.592Z,11.86
2023-05-10T01:54:03.295Z,11.91
2023-05-10T01:55:29.422Z,11.81
2023-05-10T01:56:58.130Z,11.92
2023-05-10T01:58:24.735Z,11.93
2023-05-10T01:59:50.951Z,11.80
2023-05-10T02:01:15.556Z,11.96
2023-05-10T02:02:40.800Z,11.77
2023-05-10T02:04:04.979Z,11.71
2023-05-10T02:05:31.358Z,11.90
2023-05-10T02:06:55.534Z,12.00
2023-05-10T02:08:20.876Z,12.11
2023-05-10T02:09:48.382Z,12.13
2023-05-10T02:11:14.314Z,12.11
2023-05-10T02:12:38.599Z,12.23
2023-05-10T02:14:01.513Z,12.23
2023-05-10T02:15:26.200Z,12.22
2023-05-10T02:16:50.121Z,12.25
2023-05-10T02:18:14.795Z,12.22
2023-05-10T02:19:38.775Z,12.25
2023-05-10T02:21:04.153Z,12.19
2023-05-10T02:22:27.623Z,12.22
2023-05-10T02:23:54.098Z,12.25
2023-05-10T02:25:16.702Z,12.28
2023-05-10T02:26:40.524Z,12.18
2023-05-10T02:28:06.688Z,12.25
2023-05-10T02:29:30.076Z,12.23
2023-05-10T02:30:54.170Z,12.25
2023-05-10T02:32:17.491Z,12.14
2023-05-10T02:33:42.317Z,12.27
2023-05-10T02:35:06.466Z,12.36
2023-05-10T02:36:32.409Z,12.44
2023-05-10T02:37:55.329Z,12.45
2023-05-10T02:39:20.388Z,12.58
2023-05-10T02:40:43.471Z,12.56
2023-05-10T02:42:07.601Z,12.58
2023-05-10T02:43:33.216Z,12.64
2023-05-10T02:45:01.734Z,12.53
2023-05-10T02:46:25.711Z,12.61
2023-05-10T02:47:47.944Z,12.34
2023-05-10T02:49:11.054Z,12.30
2023-05-10T02:50:34.868Z,12.34
2023-05-10T02:52:03.230Z,12.42
2023-05-10T02:53:37.533Z,12.45
2023-05-10T02:55:04.641Z,12.31
2023-05-10T02:56:33.736Z,12.08
2023-05-10T02:58:00.009Z,11.70
2023-05-10T02:59:22.768Z,11.28
2023-05-10T03:00:44.593Z,11.16
2023-05-10T03:02:07.950Z,11.07
2023-05-10T03:03:30.798Z,11.47
2023-05-10T03:04:52.691Z,11.59
2023-05-10T03:06:15.509Z,11.55
2023-05-10T03:07:38.721Z,11.56
2023-05-10T03:09:01.822Z,11.59
2023-05-10T03:10:31.038Z,11.68
2023-05-10T03:12:02.061Z,12.01
2023-05-10T03:13:33.713Z,12.00
2023-05-10T03:15:08.294Z,12.22
2023-05-10T03:16:44.788Z,11.93
2023-05-10T03:18:11.680Z,12.13
2023-05-10T03:19:40.999Z,12.42
2023-05-10T03:21:06.492Z,12.56
2023-05-10T03:22:34.175Z,12.68
2023-05-10T03:24:02.345Z,12.75
2023-05-10T03:25:25.917Z,12.86
2023-05-10T03:26:48.880Z,12.91
2023-05-10T03:28:11.929Z,13.00
2023-05-10T03:29:35.853Z,13.02
2023-05-10T03:30:59.456Z,12.98
2023-05-10T03:32:21.565Z,12.92
2023-05-10T03:33:50.534Z,12.41
2023-05-10T03:35:15.254Z,12.63
2023-05-10T03:36:38.224Z,12.89
2023-05-10T03:38:01.186Z,13.01
2023-05-10T03:39:25.835Z,12.99
2023-05-10T03:40:49.267Z,12.77
2023-05-10T03:42:12.827Z,12.65
2023-05-10T03:43:36.023Z,12.82
2023-05-10T03:44:58.079Z,13.01
2023-05-10T03:46:20.899Z,13.17
2023-05-10T03:47:42.801Z,13.20
2023-05-10T03:49:05.546Z,13.28
2023-05-10T03:50:28.686Z,13.37
2023-05-10T03:51:51.490Z,13.48
2023-05-10T03:53:13.374Z,13.32
2023-05-10T03:54:37.433Z,13.41
2023-05-10T03:55:59.210Z,13.49
2023-05-10T03:57:22.015Z,13.61
2023-05-10T03:58:43.849Z,13.64
2023-05-10T04:00:07.660Z,13.71
2023-05-10T04:01:29.457Z,13.65
2023-05-10T04:02:52.301Z,13.68
2023-05-10T04:04:15.256Z,13.78
2023-05-10T04:05:37.584Z,13.84
2023-05-10T04:07:00.399Z,13.93
2023-05-10T04:08:23.183Z,13.91
2023-05-10T04:09:46.373Z,14.05
2023-05-10T04:11:09.962Z,13.97
2023-05-10T04:12:32.759Z,14.21
2023-05-10T04:13:54.613Z,14.00
2023-05-10T04:15:17.541Z,13.85
2023-05-10T04:16:39.421Z,13.98
2023-05-10T04:18:02.275Z,14.20
2023-05-10T04:19:25.262Z,14.41
2023-05-10T04:20:47.090Z,14.36
2023-05-10T04:22:10.028Z,14.41
2023-05-10T04:23:31.917Z,14.43
2023-05-10T04:24:56.048Z,14.49
2023-05-10T04:26:18.005Z,14.50
2023-05-10T04:27:40.857Z,14.63
2023-05-10T04:29:03.526Z,14.63
2023-05-10T04:30:26.663Z,14.73
2023-05-10T04:31:49.789Z,14.76
2023-05-10T04:33:12.806Z,14.80
2023-05-10T04:34:35.150Z,14.75
2023-05-10T04:35:57.984Z,14.68
2023-05-10T04:37:22.307Z,14.58
2023-05-10T04:38:44.726Z,14.68
2023-05-10T04:40:10.287Z,14.80
2023-05-10T04:41:33.412Z,14.95
2023-05-10T04:42:56.171Z,15.11
2023-05-10T04:44:18.969Z,14.51
2023-05-10T04:45:41.770Z,14.65
2023-05-10T04:47:04.741Z,14.91
2023-05-10T04:48:27.721Z,15.06
2023-05-10T04:49:49.625Z,15.13
2023-05-10T04:51:12.639Z,15.05
2023-05-10T04:52:35.432Z,15.19
2023-05-10T04:54:06.063Z,15.21
2023-05-10T04:55:30.833Z,15.40
2023-05-10T04:56:52.690Z,15.49
2023-05-10T04:58:15.696Z,15.57
2023-05-10T04:59:38.620Z,15.64
2023-05-10T05:01:07.232Z,15.38
2023-05-10T05:02:30.147Z,15.39
2023-05-10T05:03:54.195Z,15.39
2023-05-10T05:05:17.186Z,15.42
2023-05-10T05:06:40.030Z,15.06
2023-05-10T05:08:02.880Z,15.13
2023-05-10T05:09:24.688Z,15.21
2023-05-10T05:10:51.128Z,14.83
2023-05-10T05:12:15.320Z,15.12
2023-05-10T05:13:38.230Z,14.98
2023-05-10T05:15:00.182Z,14.81
2023-05-10T05:16:23.058Z,14.68
2023-05-10T05:17:45.828Z,14.76
2023-05-10T05:19:08.977Z,14.91
2023-05-10T05:20:34.151Z,15.13
2023-05-10T05:21:57.290Z,15.41
2023-05-10T05:23:21.736Z,15.13
2023-05-10T05:24:44.525Z,15.14
2023-05-10T05:26:08.674Z,15.27
2023-05-10T05:27:31.673Z,14.84
2023-05-10T05:28:55.590Z,14.61
2023-05-10T05:30:18.852Z,15.14
2023-05-10T05:31:41.864Z,15.42
2023-05-10T05:33:04.942Z,15.74
2023-05-10T05:34:28.052Z,15.65
2023-05-10T05:35:51.789Z,15.49
2023-05-10T05:37:14.477Z,15.60
2023-05-10T05:38:37.435Z,15.74
2023-05-10T05:40:02.105Z,15.94
2023-05-10T05:41:26.947Z,15.97
2023-05-10T05:42:50.178Z,16.10
2023-05-10T05:44:12.951Z,16.32
2023-05-10T05:45:35.774Z,16.41
2023-05-10T05:46:58.645Z,16.19
2023-05-10T05:48:21.668Z,16.20
2023-05-10T05:49:43.580Z,16.29
2023-05-10T05:51:07.403Z,15.97
2023-05-10T05:52:30.376Z,16.12
2023-05-10T05:53:53.154Z,16.24
2023-05-10T05:55:16.345Z,16.07
2023-05-10T05:56:40.615Z,16.13
2023-05-10T05:58:03.780Z,16.23
2023-05-10T05:59:26.594Z,16.42
2023-05-10T06:00:49.712Z,16.39
2023-05-10T06:02:12.685Z,16.36
2023-05-10T06:03:35.699Z,16.36
2023-05-10T06:04:57.773Z,16.24
2023-05-10T06:06:20.623Z,16.22
2023-05-10T06:07:43.209Z,15.82
2023-05-10T06:09:06.026Z,15.83
2023-05-10T06:10:28.837Z,15.71
2023-05-10T06:11:52.933Z,16.04
2023-05-10T06:13:16.540Z,16.15
2023-05-10T06:14:38.600Z,15.87
2023-05-10T06:16:01.662Z,15.42
2023-05-10T06:17:25.108Z,15.83
2023-05-10T06:18:47.891Z,15.98
2023-05-10T06:20:11.823Z,15.59
2023-05-10T06:21:34.630Z,15.37
2023-05-10T06:22:57.388Z,15.72
2023-05-10T06:24:20.204Z,15.92
2023-05-10T06:25:43.260Z,15.66
2023-05-10T06:27:08.112Z,15.53
2023-05-10T06:28:32.259Z,14.99
2023-05-10T06:30:02.086Z,15.06
2023-05-10T06:31:32.350Z,15.28
2023-05-10T06:32:54.636Z,15.47
2023-05-10T06:34:17.405Z,15.49
2023-05-10T06:35:40.761Z,15.58
2023-05-10T06:37:04.583Z,15.11
2023-05-10T06:38:27.770Z,15.20
2023-05-10T06:39:50.575Z,15.38
2023-05-10T06:41:13.338Z,15.52
2023-05-10T06:42:37.561Z,15.56
2023-05-10T06:44:00.322Z,15.82
2023-05-10T06:45:23.191Z,15.94
2023-05-10T06:46:46.078Z,15.74
2023-05-10T06:48:09.163Z,15.64
2023-05-10T06:49:31.997Z,15.81
2023-05-10T06:50:54.856Z,15.94
2023-05-10T06:52:17.666Z,15.93
2023-05-10T06:53:40.456Z,16.07
2023-05-10T06:55:04.000Z,16.14
2023-05-10T06:56:25.818Z,16.19
2023-05-10T06:57:49.979Z,15.30
2023-05-10T06:59:14.483Z,15.43
2023-05-10T07:00:40.229Z,15.54
2023-05-10T07:02:03.208Z,15.88
2023-05-10T07:03:26.201Z,15.59
2023-05-10T07:04:49.265Z,15.41
2023-05-10T07:06:21.566Z,15.33
2023-05-10T07:07:53.759Z,15.56
2023-05-10T07:09:16.741Z,15.35
2023-05-10T07:10:39.516Z,15.44
2023-05-10T07:12:02.779Z,15.88
2023-05-10T07:13:27.110Z,15.64
2023-05-10T07:14:49.949Z,15.46
2023-05-10T07:16:12.860Z,15.30
2023-05-10T07:17:35.871Z,15.78
2023-05-10T07:18:58.806Z,15.72
2023-05-10T07:20:21.619Z,16.02
2023-05-10T07:21:44.417Z,16.16
2023-05-10T07:23:07.351Z,16.30
2023-05-10T07:24:30.814Z,16.47
2023-05-10T07:25:54.349Z,16.76
2023-05-10T07:27:17.203Z,16.83
2023-05-10T07:28:41.478Z,16.84
2023-05-10T07:30:04.866Z,16.05
2023-05-10T07:31:27.679Z,15.80
2023-05-10T07:32:50.559Z,15.92
2023-05-10T07:34:13.448Z,15.49
2023-05-10T07:35:36.353Z,15.52
2023-05-10T07:36:59.929Z,15.84
2023-05-10T07:38:22.823Z,16.06
2023-05-10T07:39:45.725Z,16.20
2023-05-10T07:41:08.690Z,16.30
2023-05-10T07:42:31.609Z,16.21
2023-05-10T07:43:55.719Z,16.50
2023-05-10T07:45:18.783Z,16.45
2023-05-10T07:46:41.748Z,16.48
2023-05-10T07:48:04.889Z,16.36
2023-05-10T07:49:28.037Z,16.55
2023-05-10T07:50:50.808Z,16.88
2023-05-10T07:52:14.681Z,16.91
2023-05-10T07:53:37.657Z,17.09
2023-05-10T07:54:59.735Z,17.26
2023-05-10T07:56:26.284Z,17.39
2023-05-10T07:57:49.144Z,17.48
2023-05-10T07:59:17.832Z,17.09
2023-05-10T08:00:42.186Z,17.21
2023-05-10T08:02:05.048Z,17.19
2023-05-10T08:03:27.999Z,17.17
2023-05-10T08:04:50.837Z,17.14
2023-05-10T08:06:13.831Z,17.06
2023-05-10T08:07:36.678Z,17.09
2023-05-10T08:08:59.889Z,16.93
2023-05-10T08:10:22.697Z,16.75
2023-05-10T08:11:45.498Z,16.51
2023-05-10T08:13:08.483Z,16.47
2023-05-10T08:14:32.809Z,16.20
2023-05-10T08:15:55.648Z,16.56
2023-05-10T08:17:20.074Z,16.48
2023-05-10T08:18:43.471Z,16.51
2023-05-10T08:20:08.302Z,16.71
2023-05-10T08:21:32.139Z,16.51
2023-05-10T08:22:54.961Z,16.66
2023-05-10T08:24:17.925Z,16.65
2023-05-10T08:25:40.904Z,17.04
2023-05-10T08:27:03.860Z,17.04
2023-05-10T08:28:26.682Z,17.06
2023-05-10T08:29:50.895Z,16.52
2023-05-10T08:31:14.001Z,16.26
2023-05-10T08:32:38.907Z,16.52
2023-05-10T08:34:02.252Z,16.48
2023-05-10T08:35:25.297Z,16.68
2023-05-10T08:36:48.142Z,16.75
2023-05-10T08:38:10.981Z,16.75
2023-05-10T08:39:36.368Z,16.69
2023-05-10T08:41:00.466Z,16.85
2023-05-10T08:42:26.531Z,16.64
2023-05-10T08:43:49.787Z,16.79
2023-05-10T08:45:15.432Z,16.54
2023-05-10T08:46:44.901Z,16.36
2023-05-10T08:48:09.161Z,15.67
2023-05-10T08:49:33.583Z,15.96
2023-05-10T08:51:00.064Z,16.23
2023-05-10T08:52:24.705Z,16.31
2023-05-10T08:53:47.947Z,16.40
2023-05-10T08:55:11.239Z,16.22
2023-05-10T08:56:34.529Z,15.83
2023-05-10T08:57:57.701Z,15.91
2023-05-10T08:59:20.521Z,15.62
2023-05-10T09:00:45.318Z,15.63
2023-05-10T09:02:09.169Z,16.01
2023-05-10T09:03:32.673Z,16.24
2023-05-10T09:04:55.691Z,16.52
2023-05-10T09:06:19.152Z,16.79
2023-05-10T09:07:42.004Z,17.19
2023-05-10T09:09:04.385Z,17.30
2023-05-10T09:10:28.910Z,17.00
2023-05-10T09:11:51.833Z,16.97
2023-05-10T09:13:16.082Z,16.52
2023-05-10T09:14:40.144Z,16.28
2023-05-10T09:16:17.510Z,16.49
2023-05-10T09:17:44.481Z,16.94
2023-05-10T09:19:07.998Z,16.88
2023-05-10T09:20:30.882Z,17.00
2023-05-10T09:21:53.663Z,16.56
2023-05-10T09:23:16.509Z,15.83
2023-05-10T09:24:43.377Z,15.97
2023-05-10T09:26:07.041Z,16.01
2023-05-10T09:27:29.910Z,16.29
2023-05-10T09:28:54.322Z,16.46
2023-05-10T09:30:18.796Z,16.74
2023-05-10T09:31:53.075Z,16.44
2023-05-10T09:33:15.933Z,16.30
2023-05-10T09:34:41.138Z,16.32
2023-05-10T09:36:09.390Z,16.37
2023-05-10T09:37:32.252Z,16.34
2023-05-10T09:38:55.025Z,16.36
2023-05-10T09:40:19.696Z,16.78
2023-05-10T09:41:44.593Z,17.14
2023-05-10T09:43:09.519Z,17.55
2023-05-10T09:44:33.174Z,17.77
2023-05-10T09:45:56.004Z,17.36
2023-05-10T09:47:20.498Z,17.53
2023-05-10T09:48:45.326Z,17.43
2023-05-10T09:50:09.000Z,17.45
2023-05-10T09:51:35.000Z,17.52
2023-05-10T09:53:00.967Z,17.06
2023-05-10T09:54:24.794Z,17.14
2023-05-10T09:55:50.237Z,16.28
2023-05-10T09:57:21.846Z,16.73
2023-05-10T09:58:44.797Z,16.84
2023-05-10T10:00:09.627Z,16.62
2023-05-10T10:01:32.556Z,16.93
2023-05-10T10:03:01.217Z,16.96
2023-05-10T10:04:24.165Z,16.24
2023-05-10T10:05:48.331Z,16.20
2023-05-10T10:07:11.473Z,16.31
2023-05-10T10:08:36.212Z,16.38
2023-05-10T10:10:00.860Z,16.42
2023-05-10T10:11:25.894Z,16.80
2023-05-10T10:12:48.817Z,16.93
2023-05-10T10:14:13.412Z,16.78
2023-05-10T10:15:36.646Z,16.59
2023-05-10T10:18:32.658Z,17.19
2023-05-10T10:19:56.394Z,17.56
2023-05-10T10:21:19.477Z,17.53
2023-05-10T10:22:42.321Z,17.27
2023-05-10T10:24:06.665Z,17.37
2023-05-10T10:25:29.730Z,17.70
2023-05-10T10:26:53.615Z,17.73
2023-05-10T10:28:28.176Z,17.31
2023-05-10T10:30:01.296Z,17.42
2023-05-10T10:31:34.272Z,17.59
2023-05-10T10:33:27.273Z,17.74
2023-05-10T10:34:52.281Z,17.81
2023-05-10T10:36:17.497Z,17.64
2023-05-10T10:37:46.052Z,17.55
2023-05-10T10:39:11.655Z,17.07
2023-05-10T10:40:36.164Z,17.10
2023-05-10T10:42:00.896Z,17.56
2023-05-10T10:43:24.999Z,16.94
2023-05-10T10:44:47.800Z,16.83
2023-05-10T10:46:11.409Z,16.97
2023-05-10T10:47:34.594Z,17.38
2023-05-10T10:49:11.121Z,17.69
2023-05-10T10:50:45.582Z,18.05
2023-05-10T10:52:23.719Z,18.37
2023-05-10T10:53:49.581Z,18.28
2023-05-10T10:55:14.541Z,18.06
2023-05-10T10:56:37.628Z,18.25
2023-05-10T10:58:03.233Z,18.37
2023-05-10T10:59:27.915Z,18.61
2023-05-10T11:00:51.167Z,18.62
2023-05-10T11:02:34.566Z,17.85
2023-05-10T11:04:22.241Z,18.19
2023-05-10T11:05:47.326Z,18.43
2023-05-10T11:07:20.788Z,18.43
2023-05-10T11:08:48.726Z,18.71
2023-05-10T11:10:11.574Z,18.12
2023-05-10T11:11:36.104Z,17.98
2023-05-10T11:13:02.817Z,18.38
2023-05-10T11:14:26.126Z,18.57
2023-05-10T11:15:50.703Z,18.73
2023-05-10T11:17:26.482Z,18.81
2023-05-10T11:19:02.589Z,18.88
2023-05-10T11:20:29.895Z,18.86
2023-05-10T11:22:14.531Z,18.59
2023-05-10T11:23:50.517Z,17.69
2023-05-10T11:25:13.900Z,17.99
2023-05-10T11:26:37.517Z,18.09
2023-05-10T11:28:06.414Z,17.93
2023-05-10T11:29:29.246Z,17.52
2023-05-10T11:30:53.421Z,17.51
2023-05-10T11:32:16.595Z,17.14
2023-05-10T11:33:44.762Z,17.04
2023-05-10T11:35:11.304Z,16.77
2023-05-10T11:36:37.250Z,16.73
2023-05-10T11:38:01.559Z,16.56
2023-05-10T11:39:28.808Z,16.63
2023-05-10T11:40:54.998Z,16.59
2023-05-10T11:42:18.043Z,16.55
2023-05-10T11:43:41.847Z,16.57
2023-05-10T11:45:05.002Z,16.75
2023-05-10T11:46:29.764Z,16.87
2023-05-10T11:47:52.767Z,17.01
2023-05-10T11:49:15.712Z,17.15
2023-05-10T11:50:38.571Z,17.10
2023-05-10T11:52:08.398Z,17.14
2023-05-10T11:53:34.520Z,16.96
2023-05-10T11:54:58.601Z,16.51
2023-05-10T11:56:22.783Z,16.85
2023-05-10T11:57:46.905Z,17.09
2023-05-10T11:59:09.947Z,17.48
2023-05-10T12:00:33.954Z,17.59
2023-05-10T12:01:57.318Z,17.78
2023-05-10T12:03:20.465Z,18.11
2023-05-10T12:04:43.916Z,18.32
2023-05-10T12:06:07.205Z,18.50
2023-05-10T12:07:29.083Z,18.39
2023-05-10T12:08:54.581Z,17.86
2023-05-10T12:10:19.091Z,18.06
2023-05-10T12:11:44.323Z,17.97
2023-05-10T12:13:08.044Z,18.46
2023-05-10T12:14:34.264Z,18.68
2023-05-10T12:15:59.606Z,18.79
2023-05-10T12:17:22.675Z,18.62
2023-05-10T12:18:46.058Z,18.53
2023-05-10T12:20:15.355Z,18.63
2023-05-10T12:21:39.749Z,18.85
2023-05-10T12:23:04.739Z,19.02
2023-05-10T12:24:28.896Z,18.75
2023-05-10T12:25:52.397Z,18.71
2023-05-10T12:27:16.605Z,18.59
2023-05-10T12:28:40.294Z,18.20
2023-05-10T12:30:04.817Z,18.11
2023-05-10T12:31:27.608Z,17.64
2023-05-10T12:32:50.621Z,17.42
2023-05-10T12:34:13.626Z,17.53
2023-05-10T12:35:46.346Z,17.60
2023-05-10T12:37:09.155Z,17.48
2023-05-10T12:38:35.085Z,17.67
2023-05-10T12:39:59.159Z,18.00
2023-05-10T12:41:22.213Z,18.22
2023-05-10T12:42:45.824Z,18.31
2023-05-10T12:44:08.718Z,18.55
2023-05-10T12:45:31.802Z,18.62
2023-05-10T12:46:53.721Z,18.65
2023-05-10T12:48:16.612Z,18.86
2023-05-10T12:49:39.381Z,18.86
2023-05-10T12:51:02.463Z,18.91
2023-05-10T12:52:25.233Z,18.85
2023-05-10T12:53:49.666Z,18.85
2023-05-10T12:55:14.006Z,18.70
2023-05-10T12:56:37.941Z,18.29
2023-05-10T12:58:00.909Z,18.57
2023-05-10T12:59:23.838Z,18.35
2023-05-10T13:00:46.910Z,17.99
2023-05-10T13:02:10.919Z,18.26
2023-05-10T13:03:33.980Z,18.26
2023-05-10T13:04:57.334Z,17.41
2023-05-10T13:06:20.093Z,16.78
2023-05-10T13:07:44.829Z,16.39
2023-05-10T13:09:07.922Z,16.61
2023-05-10T13:10:33.357Z,16.59
2023-05-10T13:11:56.261Z,16.82
2023-05-10T13:13:19.248Z,15.99
2023-05-10T13:14:42.457Z,15.67
2023-05-10T13:16:05.712Z,15.66
2023-05-10T13:17:28.732Z,15.68
2023-05-10T13:18:51.623Z,15.79
2023-05-10T13:20:14.620Z,16.20
2023-05-10T13:21:37.499Z,16.37
2023-05-10T13:23:00.501Z,16.29
2023-05-10T13:24:23.307Z,16.30
2023-05-10T13:25:47.470Z,16.13
2023-05-10T13:27:10.327Z,16.05
2023-05-10T13:28:33.260Z,15.88
2023-05-10T13:29:56.044Z,15.77
2023-05-10T13:31:18.911Z,15.76
2023-05-10T13:32:41.765Z,15.85
2023-05-10T13:34:05.389Z,15.81
2023-05-10T13:35:28.169Z,15.83
2023-05-10T13:36:51.489Z,16.01
2023-05-10T13:38:15.081Z,15.93
2023-05-10T13:39:38.593Z,16.02
2023-05-10T13:41:02.753Z,16.02
2023-05-10T13:42:25.787Z,16.18
2023-05-10T13:43:49.929Z,15.99
2023-05-10T13:45:14.460Z,16.12
2023-05-10T13:46:38.862Z,16.46
2023-05-10T13:48:01.772Z,16.69
2023-05-10T13:49:24.601Z,17.11
2023-05-10T13:50:47.684Z,17.33
2023-05-10T13:52:11.088Z,17.42
2023-05-10T13:53:34.300Z,17.35
2023-05-10T13:54:57.539Z,17.27
2023-05-10T13:56:21.659Z,17.25
2023-05-10T13:57:44.509Z,17.46
2023-05-10T13:59:07.290Z,17.65
2023-05-10T14:00:30.123Z,17.69
2023-05-10T14:01:53.147Z,17.77
2023-05-10T14:03:16.002Z,17.74
2023-05-10T14:04:38.861Z,18.00
2023-05-10T14:06:01.971Z,18.04
2023-05-10T14:07:24.735Z,17.43
2023-05-10T14:08:47.765Z,16.39
2023-05-10T14:10:11.306Z,16.36
2023-05-10T14:11:35.445Z,16.10
2023-05-10T14:12:58.440Z,16.13
2023-05-10T14:14:21.498Z,16.07
2023-05-10T14:15:44.282Z,16.32
2023-05-10T14:17:07.109Z,16.28
2023-05-10T14:18:30.370Z,16.23
2023-05-10T14:19:54.156Z,16.21
2023-05-10T14:21:17.310Z,16.59
2023-05-10T14:22:40.132Z,16.51
2023-05-10T14:24:02.989Z,16.26
2023-05-10T14:25:26.128Z,16.18
2023-05-10T14:26:50.288Z,16.28
2023-05-10T14:28:13.811Z,16.80
2023-05-10T14:29:36.609Z,16.85
2023-05-10T14:30:59.948Z,16.75
2023-05-10T14:32:22.698Z,16.24
2023-05-10T14:33:45.491Z,16.00
2023-05-10T14:35:10.715Z,15.97
2023-05-10T14:36:35.134Z,16.16
2023-05-10T14:37:57.940Z,16.29
2023-05-10T14:39:20.754Z,16.45
2023-05-10T14:40:43.922Z,16.39
2023-05-10T14:42:08.084Z,16.34
2023-05-10T14:43:31.410Z,16.59
2023-05-10T14:44:54.143Z,16.77
2023-05-10T14:46:17.028Z,17.22
2023-05-10T14:47:40.113Z,17.20
2023-05-10T14:49:03.053Z,17.12
2023-05-10T14:51:55.178Z,16.59
2023-05-10T14:53:18.019Z,16.63
2023-05-10T14:54:41.232Z,16.25
2023-05-10T14:56:04.173Z,16.26
2023-05-10T14:57:30.496Z,16.10
2023-05-10T14:58:53.437Z,15.84
2023-05-10T15:00:18.092Z,15.67
2023-05-10T15:01:42.984Z,15.77
2023-05-10T15:03:06.442Z,15.59
2023-05-10T15:04:30.042Z,15.65
2023-05-10T15:05:54.068Z,15.58
2023-05-10T15:07:18.396Z,15.86
2023-05-10T15:08:41.531Z,16.07
2023-05-10T15:10:05.130Z,16.06
2023-05-10T15:11:28.373Z,16.02
2023-05-10T15:12:52.505Z,16.14
2023-05-10T15:14:15.380Z,15.75
2023-05-10T15:15:38.214Z,15.45
2023-05-10T15:17:01.235Z,15.34
2023-05-10T15:18:27.022Z,15.32
2023-05-10T15:19:50.154Z,15.41
2023-05-10T15:21:13.677Z,15.22
2023-05-10T15:22:36.919Z,15.15
2023-05-10T15:23:59.932Z,15.20
2023-05-10T15:25:23.587Z,15.33
2023-05-10T15:26:46.367Z,15.60
2023-05-10T15:28:10.488Z,15.66
2023-05-10T15:29:33.462Z,15.85
2023-05-10T15:30:55.782Z,16.01
2023-05-10T15:32:18.527Z,16.01
2023-05-10T15:33:41.283Z,15.89
2023-05-10T15:35:04.735Z,15.41
2023-05-10T15:36:27.664Z,15.43
2023-05-10T15:37:50.724Z,15.37
2023-05-10T15:39:13.866Z,15.62
2023-05-10T15:40:36.701Z,15.63
2023-05-10T15:41:58.575Z,15.70
2023-05-10T15:43:22.700Z,15.74
2023-05-10T15:44:45.951Z,15.56
2023-05-10T15:46:08.836Z,15.29
2023-05-10T15:47:31.959Z,15.02
2023-05-10T15:48:54.767Z,15.39
2023-05-10T15:50:17.897Z,15.67
2023-05-10T15:51:42.020Z,15.80
2023-05-10T15:53:04.812Z,15.33
2023-05-10T15:54:26.828Z,15.28
2023-05-10T15:55:49.614Z,15.44
2023-05-10T15:57:11.520Z,15.43
2023-05-10T15:58:35.661Z,15.39
2023-05-10T15:59:58.468Z,15.33
2023-05-10T16:01:21.370Z,15.13
2023-05-10T16:02:44.359Z,15.17
2023-05-10T16:04:07.195Z,15.23
2023-05-10T16:05:32.644Z,15.01
2023-05-10T16:06:55.422Z,15.08
2023-05-10T16:08:18.501Z,15.31
2023-05-10T16:09:41.330Z,15.19
2023-05-10T16:11:04.323Z,15.44
2023-05-10T16:12:27.207Z,15.72
2023-05-10T16:13:51.274Z,15.89
2023-05-10T16:15:14.052Z,16.31
2023-05-10T16:16:37.124Z,15.99
2023-05-10T16:18:00.062Z,15.90
2023-05-10T16:19:23.033Z,15.85
2023-05-10T16:20:46.009Z,16.36
2023-05-10T16:22:08.792Z,16.71
2023-05-10T16:23:31.848Z,16.63
2023-05-10T16:24:54.643Z,16.27
2023-05-10T16:26:17.564Z,16.33
2023-05-10T16:27:40.400Z,16.03
2023-05-10T16:29:04.510Z,15.96
2023-05-10T16:30:30.131Z,15.95
2023-05-10T16:31:53.181Z,16.11
2023-05-10T16:33:16.289Z,16.08
2023-05-10T16:34:39.325Z,16.07
2023-05-10T16:36:02.158Z,16.18
2023-05-10T16:37:24.944Z,16.13
2023-05-10T16:38:47.699Z,16.46
2023-05-10T16:40:11.360Z,16.93
2023-05-10T16:41:33.749Z,16.84
2023-05-10T16:42:56.645Z,17.03
2023-05-10T16:44:21.868Z,16.83
2023-05-10T16:45:45.842Z,16.82
2023-05-10T16:47:09.646Z,16.38
2023-05-10T16:48:32.392Z,16.66
2023-05-10T16:49:54.218Z,17.00
2023-05-10T16:51:17.059Z,17.04
2023-05-10T16:52:39.938Z,17.29
2023-05-10T16:54:01.942Z,17.49
2023-05-10T16:55:26.357Z,17.74
2023-05-10T16:56:49.334Z,17.45
2023-05-10T16:58:12.112Z,17.28
2023-05-10T16:59:35.285Z,16.92
2023-05-10T17:00:58.068Z,17.10
2023-05-10T17:02:20.968Z,17.50
2023-05-10T17:03:44.092Z,17.83
2023-05-10T17:05:07.489Z,17.90
2023-05-10T17:06:30.289Z,17.93
2023-05-10T17:07:53.130Z,17.34
2023-05-10T17:09:15.963Z,17.03
2023-05-10T17:10:40.701Z,17.30
2023-05-10T17:12:04.039Z,16.28
2023-05-10T17:13:26.899Z,16.57
2023-05-10T17:14:51.043Z,16.95
2023-05-10T17:16:13.307Z,16.84
2023-05-10T17:17:36.251Z,17.09
2023-05-10T17:18:59.122Z,16.58
2023-05-10T17:20:21.991Z,16.81
2023-05-10T17:21:44.890Z,16.29
2023-05-10T17:23:07.913Z,16.39
2023-05-10T17:24:31.134Z,16.07
2023-05-10T17:25:54.128Z,16.21
2023-05-10T17:27:17.110Z,16.46
2023-05-10T17:28:39.893Z,16.44
2023-05-10T17:30:04.572Z,16.70
2023-05-10T17:31:27.898Z,16.61
2023-05-10T17:32:50.670Z,16.42
2023-05-10T17:34:13.497Z,16.79
2023-05-10T17:35:36.293Z,16.63
2023-05-10T17:36:59.363Z,16.84
2023-05-10T17:38:22.177Z,17.09
2023-05-10T17:39:45.201Z,17.08
2023-05-10T17:41:08.023Z,16.97
2023-05-10T17:42:30.785Z,16.55
2023-05-10T17:43:53.096Z,16.76
2023-05-10T17:45:18.524Z,16.97
2023-05-10T17:46:41.497Z,17.23
2023-05-10T17:48:04.711Z,17.40
2023-05-10T17:49:28.785Z,17.45
2023-05-10T17:50:51.830Z,17.31
2023-05-10T17:52:14.678Z,17.11
2023-05-10T17:53:37.511Z,17.04
2023-05-10T17:55:00.888Z,17.10
2023-05-10T17:56:24.438Z,16.96
2023-05-10T17:57:47.573Z,16.80
2023-05-10T17:59:11.288Z,16.68
2023-05-10T18:00:35.943Z,16.96
2023-05-10T18:01:58.718Z,17.20
2023-05-10T18:03:21.904Z,17.31
2023-05-10T18:04:45.002Z,17.45
2023-05-10T18:06:07.973Z,17.32
2023-05-10T18:07:30.196Z,16.80
2023-05-10T18:08:53.005Z,16.52
2023-05-10T18:10:15.950Z,16.51
2023-05-10T18:11:39.411Z,16.57